createdAt,value
2018-08-04T00:04:27.594Z,24.50
2018-08-04T00:09:31.686Z,24.40
2018-08-04T00:14:35.764Z,24.30
2018-08-04T00:19:39.904Z,24.10
2018-08-04T00:24:44.018Z,24.00
2018-08-04T00:29:48.110Z,24.10
2018-08-04T00:34:58.579Z,24.10
2018-08-04T00:45:06.553Z,24.00
2018-08-04T00:55:14.930Z,24.10
2018-08-04T01:00:19.038Z,24.00
2018-08-04T01:05:23.128Z,23.90
2018-08-04T01:10:27.752Z,23.70
2018-08-04T01:15:31.834Z,23.70
2018-08-04T01:20:35.905Z,23.50
2018-08-04T01:25:39.994Z,23.40
2018-08-04T01:30:44.097Z,23.50
2018-08-04T01:35:48.282Z,23.50
2018-08-04T01:40:52.360Z,23.40
2018-08-04T01:45:56.514Z,23.40
2018-08-04T01:51:00.908Z,23.30
2018-08-04T02:01:08.970Z,23.20
2018-08-04T02:06:13.100Z,23.20
2018-08-04T02:21:24.902Z,23.10
2018-08-04T02:26:29.013Z,22.90
2018-08-04T02:31:33.111Z,23.00
2018-08-04T02:36:37.225Z,22.80
2018-08-04T02:41:41.276Z,22.70
2018-08-04T02:51:49.204Z,22.60
2018-08-04T02:56:53.401Z,22.70
2018-08-04T03:01:57.481Z,22.70
2018-08-04T03:07:01.619Z,22.70
2018-08-04T03:12:05.826Z,22.70
2018-08-04T03:17:09.908Z,22.70
2018-08-04T03:22:13.992Z,22.90
2018-08-04T03:27:18.105Z,22.80
2018-08-04T03:32:22.174Z,22.80
2018-08-04T03:37:26.300Z,22.80
2018-08-04T03:42:30.381Z,22.90
2018-08-04T03:47:34.481Z,22.90
2018-08-04T03:52:38.476Z,23.00
2018-08-04T03:57:42.500Z,23.00
2018-08-04T04:02:46.530Z,23.00
2018-08-04T04:07:50.558Z,23.00
2018-08-04T04:12:54.570Z,23.00
2018-08-04T04:23:02.400Z,23.00
2018-08-04T04:28:06.426Z,22.80
2018-08-04T04:33:10.467Z,22.90
2018-08-04T04:38:14.538Z,23.00
2018-08-04T04:43:18.610Z,23.00
2018-08-04T04:48:22.628Z,22.90
2018-08-04T05:03:34.345Z,23.10
2018-08-04T05:08:38.404Z,23.00
2018-08-04T05:13:42.386Z,23.00
2018-08-04T05:18:46.401Z,23.00
2018-08-04T05:23:50.424Z,23.00
2018-08-04T05:28:54.446Z,23.10
2018-08-04T05:33:58.471Z,23.20
2018-08-04T05:39:02.504Z,23.30
2018-08-04T05:44:06.572Z,23.30
2018-08-04T05:49:10.576Z,23.30
2018-08-04T05:59:18.525Z,23.90
2018-08-04T06:04:22.769Z,24.20
2018-08-04T06:09:26.797Z,24.30
2018-08-04T06:19:34.625Z,24.60
2018-08-04T06:24:38.624Z,24.80
2018-08-04T06:29:42.751Z,25.30
2018-08-04T06:39:50.706Z,25.70
2018-08-04T06:44:54.712Z,25.80
2018-08-04T06:49:59.237Z,26.10
2018-08-04T06:55:03.284Z,26.50
2018-08-04T07:05:11.429Z,27.10
2018-08-04T07:10:15.551Z,27.10
2018-08-04T07:15:19.581Z,27.30
2018-08-04T07:30:31.309Z,28.80
2018-08-04T07:35:35.342Z,28.90
2018-08-04T07:55:50.756Z,29.90
2018-08-04T08:16:06.335Z,31.10
2018-08-04T08:26:15.019Z,30.90
2018-08-04T08:31:19.109Z,31.20
2018-08-04T08:36:23.199Z,31.60
2018-08-04T08:41:27.274Z,32.10
2018-08-04T08:46:31.394Z,32.30
2018-08-04T08:51:35.421Z,33.10
2018-08-04T08:56:39.545Z,33.70
2018-08-04T09:01:43.602Z,33.60
2018-08-04T09:06:47.672Z,34.00
2018-08-04T09:16:55.556Z,34.20
2018-08-04T09:27:03.740Z,34.50
2018-08-04T09:42:16.146Z,35.80
2018-08-04T09:47:20.174Z,36.00
2018-08-04T09:52:24.255Z,36.20
2018-08-04T09:57:28.242Z,35.90
2018-08-04T10:07:36.110Z,36.10
2018-08-04T10:12:40.125Z,35.90
2018-08-04T10:17:44.145Z,35.30
2018-08-04T10:22:49.236Z,35.10
2018-08-04T10:27:53.241Z,34.50
2018-08-04T10:32:57.255Z,34.10
2018-08-04T10:43:05.290Z,33.80
2018-08-04T10:53:13.125Z,33.70
2018-08-04T10:58:17.165Z,33.60
2018-08-04T11:03:21.196Z,33.60
2018-08-04T11:23:36.858Z,33.50
2018-08-04T11:28:40.913Z,33.40
2018-08-04T11:38:48.769Z,33.40
2018-08-04T11:43:52.910Z,33.40
2018-08-04T11:48:56.964Z,33.40
2018-08-04T11:54:01.061Z,33.30
2018-08-04T12:09:13.569Z,33.10
2018-08-04T12:14:17.689Z,33.10
2018-08-04T12:29:29.305Z,33.20
2018-08-04T12:34:33.332Z,33.10
2018-08-04T12:39:37.374Z,33.20
2018-08-04T12:49:45.203Z,33.20
2018-08-04T13:25:12.754Z,33.00
2018-08-04T13:30:16.812Z,32.90
2018-08-04T13:35:21.573Z,33.00
2018-08-04T13:40:25.606Z,33.00
2018-08-04T13:50:33.455Z,33.20
2018-08-04T14:05:45.105Z,33.20
2018-08-04T14:10:49.379Z,33.10
2018-08-04T14:31:11.562Z,33.00
2018-08-04T14:36:15.664Z,33.00
2018-08-04T14:46:23.449Z,32.90
2018-08-04T14:51:27.493Z,32.90
2018-08-04T14:56:31.505Z,32.80
2018-08-04T15:06:39.429Z,32.90
2018-08-04T15:11:43.457Z,32.70
2018-08-04T15:16:47.572Z,32.80
2018-08-04T15:37:03.078Z,32.60
2018-08-04T15:47:10.921Z,32.60
2018-08-04T15:52:14.968Z,32.60
2018-08-04T15:57:19.013Z,32.50
2018-08-04T16:07:26.859Z,32.50
2018-08-04T16:12:30.947Z,32.40
2018-08-04T16:22:40.345Z,32.30
2018-08-04T16:27:44.363Z,32.30
2018-08-04T16:32:48.504Z,32.30
2018-08-04T16:37:52.524Z,32.30
2018-08-04T16:42:56.543Z,32.30
2018-08-04T16:48:00.570Z,32.30
2018-08-04T16:58:08.381Z,32.10
2018-08-04T17:08:16.280Z,32.00
2018-08-04T17:18:24.100Z,31.80
2018-08-04T17:33:35.928Z,31.60
2018-08-04T17:38:40.000Z,31.40
2018-08-04T17:48:47.900Z,31.20
2018-08-04T17:58:55.714Z,31.00
2018-08-04T18:03:59.837Z,30.90
2018-08-04T18:14:09.310Z,30.80
2018-08-04T18:19:13.323Z,30.70
2018-08-04T18:24:17.336Z,30.60
2018-08-04T18:34:25.171Z,30.30
2018-08-04T18:39:29.969Z,30.20
2018-08-04T18:49:37.792Z,30.00
2018-08-04T18:54:41.829Z,29.90
2018-08-04T19:14:58.093Z,29.60
2018-08-04T19:30:09.909Z,29.20
2018-08-04T19:35:13.914Z,29.10
2018-08-04T19:45:21.737Z,28.90
2018-08-04T19:55:29.719Z,28.60
2018-08-04T20:00:33.702Z,28.50
2018-08-04T20:05:37.741Z,28.40
2018-08-04T20:20:49.531Z,28.00
2018-08-04T20:25:53.569Z,27.90
2018-08-04T20:30:57.609Z,27.80
2018-08-04T20:36:01.638Z,27.60
2018-08-04T20:41:06.149Z,27.50
2018-08-04T21:01:42.173Z,27.10
2018-08-04T21:11:51.637Z,26.90
2018-08-04T21:16:56.697Z,26.80
2018-08-04T21:22:00.709Z,26.70
2018-08-04T21:27:04.813Z,26.60
2018-08-04T21:32:08.837Z,26.50
2018-08-04T21:37:12.865Z,26.40
2018-08-04T21:42:16.880Z,26.40
2018-08-04T21:47:20.921Z,26.40
2018-08-04T21:57:28.826Z,26.10
2018-08-04T22:02:32.858Z,26.00
2018-08-04T22:07:54.673Z,25.90
2018-08-04T22:12:58.741Z,25.80
2018-08-04T22:23:06.648Z,25.70
2018-08-04T22:28:10.740Z,25.50
2018-08-04T22:33:14.795Z,25.40
2018-08-04T22:38:18.835Z,25.30
2018-08-04T22:43:22.861Z,25.30
2018-08-04T22:48:26.956Z,25.20
2018-08-04T22:58:34.917Z,25.20
2018-08-04T23:03:38.946Z,25.00
2018-08-04T23:08:42.980Z,25.00
2018-08-04T23:13:47.009Z,25.00
2018-08-04T23:18:51.025Z,24.90
2018-08-04T23:23:55.057Z,24.70
2018-08-04T23:34:02.967Z,24.50
2018-08-04T23:39:08.371Z,24.40
2018-08-04T23:44:12.397Z,24.40
2018-08-04T23:49:16.423Z,24.30
2018-08-04T23:54:20.449Z,24.20
2018-08-04T23:59:24.477Z,24.20
